sensor_id;sensor_type;location;lat;lon;timestamp;P1;durP1;ratioP1;P2;durP2;ratioP2
58878;SDS011;44660;42.664;23.266;2022-10-16T00:01:21;14.57;;;8.63;;
58878;SDS011;44660;42.664;23.266;2022-10-16T00:03:50;21.50;;;9.60;;
58878;SDS011;44660;42.664;23.266;2022-10-16T00:06:17;18.33;;;10.45;;
58878;SDS011;44660;42.664;23.266;2022-10-16T00:08:44;23.00;;;11.60;;
58878;SDS011;44660;42.664;23.266;2022-10-16T00:11:14;21.77;;;11.25;;
58878;SDS011;44660;42.664;23.266;2022-10-16T00:13:41;26.65;;;13.23;;
58878;SDS011;44660;42.664;23.266;2022-10-16T00:16:07;23.15;;;11.63;;
58878;SDS011;44660;42.664;23.266;2022-10-16T00:18:35;21.30;;;11.98;;
58878;SDS011;44660;42.664;23.266;2022-10-16T00:21:05;19.20;;;10.05;;
58878;SDS011;44660;42.664;23.266;2022-10-16T00:23:32;14.70;;;8.45;;
58878;SDS011;44660;42.664;23.266;2022-10-16T00:25:59;19.02;;;9.23;;
58878;SDS011;44660;42.664;23.266;2022-10-16T00:28:26;18.65;;;10.70;;
58878;SDS011;44660;42.664;23.266;2022-10-16T00:30:52;26.30;;;13.23;;
58878;SDS011;44660;42.664;23.266;2022-10-16T00:33:18;29.45;;;14.80;;
58878;SDS011;44660;42.664;23.266;2022-10-16T00:35:43;31.33;;;16.45;;
58878;SDS011;44660;42.664;23.266;2022-10-16T00:38:09;37.70;;;16.98;;
58878;SDS011;44660;42.664;23.266;2022-10-16T00:40:35;33.88;;;17.60;;
58878;SDS011;44660;42.664;23.266;2022-10-16T00:43:00;31.40;;;16.83;;
58878;SDS011;44660;42.664;23.266;2022-10-16T00:45:25;27.35;;;14.85;;
58878;SDS011;44660;42.664;23.266;2022-10-16T00:47:51;19.92;;;9.82;;
58878;SDS011;44660;42.664;23.266;2022-10-16T00:50:24;11.82;;;7.30;;
58878;SDS011;44660;42.664;23.266;2022-10-16T00:52:53;13.38;;;7.53;;
58878;SDS011;44660;42.664;23.266;2022-10-16T00:55:20;13.55;;;7.53;;
58878;SDS011;44660;42.664;23.266;2022-10-16T00:57:46;67.60;;;37.63;;
58878;SDS011;44660;42.664;23.266;2022-10-16T01:00:15;45.17;;;23.98;;
58878;SDS011;44660;42.664;23.266;2022-10-16T01:02:43;33.83;;;17.95;;
58878;SDS011;44660;42.664;23.266;2022-10-16T01:05:08;17.50;;;10.25;;
58878;SDS011;44660;42.664;23.266;2022-10-16T01:07:37;26.42;;;12.27;;
58878;SDS011;44660;42.664;23.266;2022-10-16T01:15:50;15.30;;;9.05;;
58878;SDS011;44660;42.664;23.266;2022-10-16T01:18:42;16.38;;;8.40;;
58878;SDS011;44660;42.664;23.266;2022-10-16T01:21:10;13.55;;;7.63;;
58878;SDS011;44660;42.664;23.266;2022-10-16T01:35:35;10.98;;;6.60;;
58878;SDS011;44660;42.664;23.266;2022-10-16T01:38:00;12.82;;;7.60;;
58878;SDS011;44660;42.664;23.266;2022-10-16T01:40:32;12.27;;;7.40;;
58878;SDS011;44660;42.664;23.266;2022-10-16T01:43:03;18.02;;;9.18;;
58878;SDS011;44660;42.664;23.266;2022-10-16T01:45:32;23.00;;;11.02;;
58878;SDS011;44660;42.664;23.266;2022-10-16T01:47:58;24.45;;;11.18;;
58878;SDS011;44660;42.664;23.266;2022-10-16T01:50:29;22.33;;;10.77;;
58878;SDS011;44660;42.664;23.266;2022-10-16T01:55:31;21.05;;;10.40;;
58878;SDS011;44660;42.664;23.266;2022-10-16T01:58:00;18.05;;;8.15;;
58878;SDS011;44660;42.664;23.266;2022-10-16T02:00:28;14.10;;;8.68;;
58878;SDS011;44660;42.664;23.266;2022-10-16T02:02:55;14.98;;;7.63;;
58878;SDS011;44660;42.664;23.266;2022-10-16T02:05:28;13.80;;;7.93;;
58878;SDS011;44660;42.664;23.266;2022-10-16T02:07:59;11.77;;;7.10;;
58878;SDS011;44660;42.664;23.266;2022-10-16T02:10:24;13.15;;;7.70;;
58878;SDS011;44660;42.664;23.266;2022-10-16T02:12:53;11.57;;;7.13;;
58878;SDS011;44660;42.664;23.266;2022-10-16T02:15:24;11.77;;;7.20;;
58878;SDS011;44660;42.664;23.266;2022-10-16T02:17:49;11.00;;;6.82;;
58878;SDS011;44660;42.664;23.266;2022-10-16T02:20:15;12.10;;;7.38;;
58878;SDS011;44660;42.664;23.266;2022-10-16T02:22:42;17.05;;;8.20;;
58878;SDS011;44660;42.664;23.266;2022-10-16T02:25:19;14.38;;;8.45;;
58878;SDS011;44660;42.664;23.266;2022-10-16T02:28:12;11.88;;;7.22;;
58878;SDS011;44660;42.664;23.266;2022-10-16T02:30:54;12.65;;;6.40;;
58878;SDS011;44660;42.664;23.266;2022-10-16T02:33:24;10.82;;;6.82;;
58878;SDS011;44660;42.664;23.266;2022-10-16T02:35:51;13.25;;;7.53;;
58878;SDS011;44660;42.664;23.266;2022-10-16T02:38:19;12.32;;;7.38;;
58878;SDS011;44660;42.664;23.266;2022-10-16T02:40:46;16.25;;;7.00;;
58878;SDS011;44660;42.664;23.266;2022-10-16T02:43:12;11.52;;;6.70;;
58878;SDS011;44660;42.664;23.266;2022-10-16T02:45:38;9.35;;;5.90;;
58878;SDS011;44660;42.664;23.266;2022-10-16T02:48:03;11.63;;;6.22;;
58878;SDS011;44660;42.664;23.266;2022-10-16T02:50:29;10.52;;;6.53;;
58878;SDS011;44660;42.664;23.266;2022-10-16T02:52:54;10.35;;;7.22;;
58878;SDS011;44660;42.664;23.266;2022-10-16T02:55:20;12.90;;;7.93;;
58878;SDS011;44660;42.664;23.266;2022-10-16T02:57:45;11.82;;;7.60;;
58878;SDS011;44660;42.664;23.266;2022-10-16T03:00:12;13.13;;;7.90;;
58878;SDS011;44660;42.664;23.266;2022-10-16T03:02:39;12.38;;;7.78;;
58878;SDS011;44660;42.664;23.266;2022-10-16T03:05:05;10.55;;;7.70;;
58878;SDS011;44660;42.664;23.266;2022-10-16T03:07:31;11.82;;;7.90;;
58878;SDS011;44660;42.664;23.266;2022-10-16T03:09:56;14.68;;;8.10;;
58878;SDS011;44660;42.664;23.266;2022-10-16T03:12:25;12.07;;;7.35;;
58878;SDS011;44660;42.664;23.266;2022-10-16T03:14:57;12.15;;;7.25;;
58878;SDS011;44660;42.664;23.266;2022-10-16T03:17:29;13.45;;;6.93;;
58878;SDS011;44660;42.664;23.266;2022-10-16T03:19:57;12.25;;;7.40;;
58878;SDS011;44660;42.664;23.266;2022-10-16T03:22:23;16.08;;;7.60;;
58878;SDS011;44660;42.664;23.266;2022-10-16T03:24:48;9.60;;;7.28;;
58878;SDS011;44660;42.664;23.266;2022-10-16T03:27:13;10.50;;;7.63;;
58878;SDS011;44660;42.664;23.266;2022-10-16T03:29:39;15.52;;;7.18;;
58878;SDS011;44660;42.664;23.266;2022-10-16T03:32:05;13.30;;;7.68;;
58878;SDS011;44660;42.664;23.266;2022-10-16T03:34:30;11.32;;;7.57;;
58878;SDS011;44660;42.664;23.266;2022-10-16T03:36:55;12.45;;;7.57;;
58878;SDS011;44660;42.664;23.266;2022-10-16T03:39:21;12.80;;;7.03;;
58878;SDS011;44660;42.664;23.266;2022-10-16T03:41:46;12.07;;;6.70;;
58878;SDS011;44660;42.664;23.266;2022-10-16T03:44:12;12.25;;;6.57;;
58878;SDS011;44660;42.664;23.266;2022-10-16T03:46:38;10.77;;;6.85;;
58878;SDS011;44660;42.664;23.266;2022-10-16T03:49:03;10.82;;;6.97;;
58878;SDS011;44660;42.664;23.266;2022-10-16T03:51:29;17.70;;;7.05;;
58878;SDS011;44660;42.664;23.266;2022-10-16T03:53:54;11.60;;;7.07;;
58878;SDS011;44660;42.664;23.266;2022-10-16T03:56:20;17.63;;;7.47;;
58878;SDS011;44660;42.664;23.266;2022-10-16T03:58:45;14.90;;;6.70;;
58878;SDS011;44660;42.664;23.266;2022-10-16T04:01:10;11.55;;;6.68;;
58878;SDS011;44660;42.664;23.266;2022-10-16T04:03:36;10.73;;;6.40;;
58878;SDS011;44660;42.664;23.266;2022-10-16T04:06:01;10.60;;;6.85;;
58878;SDS011;44660;42.664;23.266;2022-10-16T04:08:27;10.70;;;6.53;;
58878;SDS011;44660;42.664;23.266;2022-10-16T04:10:52;14.82;;;8.05;;
58878;SDS011;44660;42.664;23.266;2022-10-16T04:13:18;14.15;;;9.02;;
58878;SDS011;44660;42.664;23.266;2022-10-16T04:15:44;16.98;;;9.60;;
58878;SDS011;44660;42.664;23.266;2022-10-16T04:18:10;17.35;;;8.48;;
58878;SDS011;44660;42.664;23.266;2022-10-16T04:20:35;13.90;;;8.30;;
58878;SDS011;44660;42.664;23.266;2022-10-16T04:23:00;14.85;;;8.25;;
58878;SDS011;44660;42.664;23.266;2022-10-16T04:25:26;12.13;;;7.35;;
58878;SDS011;44660;42.664;23.266;2022-10-16T04:27:55;10.55;;;6.90;;
58878;SDS011;44660;42.664;23.266;2022-10-16T04:30:20;10.98;;;7.07;;
58878;SDS011;44660;42.664;23.266;2022-10-16T04:32:52;12.40;;;7.40;;
58878;SDS011;44660;42.664;23.266;2022-10-16T04:35:18;12.15;;;7.45;;
58878;SDS011;44660;42.664;23.266;2022-10-16T04:37:45;13.10;;;7.22;;
58878;SDS011;44660;42.664;23.266;2022-10-16T04:40:11;9.50;;;6.70;;
58878;SDS011;44660;42.664;23.266;2022-10-16T04:42:37;12.18;;;7.00;;
58878;SDS011;44660;42.664;23.266;2022-10-16T04:45:03;16.15;;;8.73;;
58878;SDS011;44660;42.664;23.266;2022-10-16T04:47:29;16.38;;;10.35;;
58878;SDS011;44660;42.664;23.266;2022-10-16T04:49:54;14.60;;;8.13;;
58878;SDS011;44660;42.664;23.266;2022-10-16T04:52:20;12.38;;;8.77;;
58878;SDS011;44660;42.664;23.266;2022-10-16T04:54:46;12.98;;;8.93;;
58878;SDS011;44660;42.664;23.266;2022-10-16T04:57:12;32.67;;;15.65;;
58878;SDS011;44660;42.664;23.266;2022-10-16T04:59:37;43.65;;;26.10;;
58878;SDS011;44660;42.664;23.266;2022-10-16T05:02:03;18.15;;;11.60;;
58878;SDS011;44660;42.664;23.266;2022-10-16T05:04:28;14.35;;;8.68;;
58878;SDS011;44660;42.664;23.266;2022-10-16T05:06:53;11.82;;;8.05;;
58878;SDS011;44660;42.664;23.266;2022-10-16T05:09:19;12.75;;;8.02;;
58878;SDS011;44660;42.664;23.266;2022-10-16T05:11:44;18.27;;;9.02;;
58878;SDS011;44660;42.664;23.266;2022-10-16T05:14:10;15.57;;;9.13;;
58878;SDS011;44660;42.664;23.266;2022-10-16T05:16:35;17.25;;;8.38;;
58878;SDS011;44660;42.664;23.266;2022-10-16T05:19:00;12.32;;;7.70;;
58878;SDS011;44660;42.664;23.266;2022-10-16T05:21:26;14.98;;;8.52;;
58878;SDS011;44660;42.664;23.266;2022-10-16T05:23:52;14.88;;;8.80;;
58878;SDS011;44660;42.664;23.266;2022-10-16T05:26:18;12.45;;;8.02;;
58878;SDS011;44660;42.664;23.266;2022-10-16T05:28:44;12.73;;;8.27;;
58878;SDS011;44660;42.664;23.266;2022-10-16T05:31:09;14.93;;;8.57;;
58878;SDS011;44660;42.664;23.266;2022-10-16T05:33:35;12.10;;;8.27;;
58878;SDS011;44660;42.664;23.266;2022-10-16T05:36:02;14.45;;;8.05;;
58878;SDS011;44660;42.664;23.266;2022-10-16T05:38:28;14.63;;;8.52;;
58878;SDS011;44660;42.664;23.266;2022-10-16T05:40:53;16.27;;;8.55;;
58878;SDS011;44660;42.664;23.266;2022-10-16T05:43:19;15.00;;;8.13;;
58878;SDS011;44660;42.664;23.266;2022-10-16T05:45:52;16.42;;;10.43;;
58878;SDS011;44660;42.664;23.266;2022-10-16T05:48:19;18.98;;;9.93;;
58878;SDS011;44660;42.664;23.266;2022-10-16T05:50:44;21.33;;;10.20;;
58878;SDS011;44660;42.664;23.266;2022-10-16T05:53:10;51.08;;;26.92;;
58878;SDS011;44660;42.664;23.266;2022-10-16T05:55:35;69.43;;;38.03;;
58878;SDS011;44660;42.664;23.266;2022-10-16T05:58:01;45.50;;;25.02;;
58878;SDS011;44660;42.664;23.266;2022-10-16T06:00:26;26.45;;;13.90;;
58878;SDS011;44660;42.664;23.266;2022-10-16T06:02:51;26.52;;;14.13;;
58878;SDS011;44660;42.664;23.266;2022-10-16T06:05:17;56.80;;;29.98;;
58878;SDS011;44660;42.664;23.266;2022-10-16T06:07:42;151.13;;;80.70;;
58878;SDS011;44660;42.664;23.266;2022-10-16T06:10:07;32.67;;;18.42;;
58878;SDS011;44660;42.664;23.266;2022-10-16T06:12:33;21.30;;;11.38;;
58878;SDS011;44660;42.664;23.266;2022-10-16T06:14:59;18.88;;;10.57;;
58878;SDS011;44660;42.664;23.266;2022-10-16T06:17:24;19.73;;;11.18;;
58878;SDS011;44660;42.664;23.266;2022-10-16T06:19:50;17.67;;;10.07;;
58878;SDS011;44660;42.664;23.266;2022-10-16T06:22:15;16.48;;;10.15;;
58878;SDS011;44660;42.664;23.266;2022-10-16T06:24:41;16.95;;;10.38;;
58878;SDS011;44660;42.664;23.266;2022-10-16T06:27:06;16.75;;;10.77;;
58878;SDS011;44660;42.664;23.266;2022-10-16T06:29:31;16.05;;;10.30;;
58878;SDS011;44660;42.664;23.266;2022-10-16T06:31:57;14.75;;;10.57;;
58878;SDS011;44660;42.664;23.266;2022-10-16T06:34:22;16.08;;;9.95;;
58878;SDS011;44660;42.664;23.266;2022-10-16T06:36:48;19.27;;;12.90;;
58878;SDS011;44660;42.664;23.266;2022-10-16T06:39:13;19.98;;;11.30;;
58878;SDS011;44660;42.664;23.266;2022-10-16T06:41:38;19.45;;;11.32;;
58878;SDS011;44660;42.664;23.266;2022-10-16T06:44:07;23.20;;;11.80;;
58878;SDS011;44660;42.664;23.266;2022-10-16T06:46:32;17.52;;;10.73;;
58878;SDS011;44660;42.664;23.266;2022-10-16T06:48:58;20.48;;;11.48;;
58878;SDS011;44660;42.664;23.266;2022-10-16T06:51:24;18.45;;;11.00;;
58878;SDS011;44660;42.664;23.266;2022-10-16T06:53:53;18.13;;;10.75;;
58878;SDS011;44660;42.664;23.266;2022-10-16T06:56:25;15.55;;;10.60;;
58878;SDS011;44660;42.664;23.266;2022-10-16T06:58:52;16.05;;;10.77;;
58878;SDS011;44660;42.664;23.266;2022-10-16T07:01:19;15.02;;;10.10;;
58878;SDS011;44660;42.664;23.266;2022-10-16T07:03:45;15.30;;;8.88;;
58878;SDS011;44660;42.664;23.266;2022-10-16T07:06:12;16.42;;;9.75;;
58878;SDS011;44660;42.664;23.266;2022-10-16T07:08:40;14.07;;;9.82;;
58878;SDS011;44660;42.664;23.266;2022-10-16T07:11:16;16.33;;;9.07;;
58878;SDS011;44660;42.664;23.266;2022-10-16T07:13:44;16.30;;;9.57;;
58878;SDS011;44660;42.664;23.266;2022-10-16T07:16:12;15.77;;;8.98;;
58878;SDS011;44660;42.664;23.266;2022-10-16T07:18:40;14.27;;;9.60;;
58878;SDS011;44660;42.664;23.266;2022-10-16T07:21:08;14.35;;;9.30;;
58878;SDS011;44660;42.664;23.266;2022-10-16T07:23:36;13.15;;;9.52;;
58878;SDS011;44660;42.664;23.266;2022-10-16T07:26:02;14.52;;;9.00;;
58878;SDS011;44660;42.664;23.266;2022-10-16T07:28:28;13.52;;;8.63;;
58878;SDS011;44660;42.664;23.266;2022-10-16T07:30:54;16.40;;;8.65;;
58878;SDS011;44660;42.664;23.266;2022-10-16T07:33:20;37.40;;;22.88;;
58878;SDS011;44660;42.664;23.266;2022-10-16T07:35:52;24.75;;;15.25;;
58878;SDS011;44660;42.664;23.266;2022-10-16T07:38:18;28.65;;;17.33;;
58878;SDS011;44660;42.664;23.266;2022-10-16T07:40:45;14.65;;;8.15;;
58878;SDS011;44660;42.664;23.266;2022-10-16T07:43:10;11.10;;;7.00;;
58878;SDS011;44660;42.664;23.266;2022-10-16T07:45:36;9.30;;;6.05;;
58878;SDS011;44660;42.664;23.266;2022-10-16T07:48:01;10.20;;;6.65;;
58878;SDS011;44660;42.664;23.266;2022-10-16T07:50:27;7.95;;;6.70;;
58878;SDS011;44660;42.664;23.266;2022-10-16T07:52:52;14.15;;;6.22;;
58878;SDS011;44660;42.664;23.266;2022-10-16T07:55:17;10.30;;;6.75;;
58878;SDS011;44660;42.664;23.266;2022-10-16T07:57:43;9.88;;;6.57;;
58878;SDS011;44660;42.664;23.266;2022-10-16T08:00:08;9.63;;;6.30;;
58878;SDS011;44660;42.664;23.266;2022-10-16T08:02:38;9.77;;;5.80;;
58878;SDS011;44660;42.664;23.266;2022-10-16T08:07:35;15.23;;;12.35;;
58878;SDS011;44660;42.664;23.266;2022-10-16T08:10:00;15.63;;;10.50;;
58878;SDS011;44660;42.664;23.266;2022-10-16T08:12:26;12.02;;;6.80;;
58878;SDS011;44660;42.664;23.266;2022-10-16T08:14:51;11.07;;;6.75;;
58878;SDS011;44660;42.664;23.266;2022-10-16T08:17:17;11.38;;;6.72;;
58878;SDS011;44660;42.664;23.266;2022-10-16T08:19:45;12.70;;;7.00;;
58878;SDS011;44660;42.664;23.266;2022-10-16T08:22:12;9.98;;;6.82;;
58878;SDS011;44660;42.664;23.266;2022-10-16T08:24:38;9.80;;;6.93;;
58878;SDS011;44660;42.664;23.266;2022-10-16T08:27:03;8.30;;;6.30;;
58878;SDS011;44660;42.664;23.266;2022-10-16T08:29:29;14.95;;;12.18;;
58878;SDS011;44660;42.664;23.266;2022-10-16T08:31:54;16.05;;;11.75;;
58878;SDS011;44660;42.664;23.266;2022-10-16T08:34:20;10.70;;;6.70;;
58878;SDS011;44660;42.664;23.266;2022-10-16T08:36:45;5.65;;;5.07;;
58878;SDS011;44660;42.664;23.266;2022-10-16T08:39:10;4.95;;;4.45;;
58878;SDS011;44660;42.664;23.266;2022-10-16T08:49:53;5.43;;;4.35;;
58878;SDS011;44660;42.664;23.266;2022-10-16T08:52:22;4.78;;;4.35;;
58878;SDS011;44660;42.664;23.266;2022-10-16T08:54:54;6.82;;;3.70;;
58878;SDS011;44660;42.664;23.266;2022-10-16T08:57:21;8.07;;;4.28;;
58878;SDS011;44660;42.664;23.266;2022-10-16T08:59:48;6.82;;;4.05;;
58878;SDS011;44660;42.664;23.266;2022-10-16T09:07:26;4.82;;;3.10;;
58878;SDS011;44660;42.664;23.266;2022-10-16T09:18:27;4.65;;;3.10;;
58878;SDS011;44660;42.664;23.266;2022-10-16T09:23:34;4.65;;;2.70;;
58878;SDS011;44660;42.664;23.266;2022-10-16T09:26:01;5.15;;;3.17;;
58878;SDS011;44660;42.664;23.266;2022-10-16T09:28:29;4.88;;;2.95;;
58878;SDS011;44660;42.664;23.266;2022-10-16T09:30:54;5.05;;;2.78;;
58878;SDS011;44660;42.664;23.266;2022-10-16T09:33:28;5.03;;;3.08;;
58878;SDS011;44660;42.664;23.266;2022-10-16T09:35:58;2.85;;;2.55;;
58878;SDS011;44660;42.664;23.266;2022-10-16T09:38:28;4.38;;;2.50;;
58878;SDS011;44660;42.664;23.266;2022-10-16T09:41:11;3.35;;;2.97;;
58878;SDS011;44660;42.664;23.266;2022-10-16T09:46:22;3.63;;;2.40;;
58878;SDS011;44660;42.664;23.266;2022-10-16T09:48:51;3.08;;;2.78;;
58878;SDS011;44660;42.664;23.266;2022-10-16T09:51:41;4.28;;;3.10;;
58878;SDS011;44660;42.664;23.266;2022-10-16T09:56:39;9.18;;;7.03;;
58878;SDS011;44660;42.664;23.266;2022-10-16T09:59:12;9.30;;;8.18;;
58878;SDS011;44660;42.664;23.266;2022-10-16T10:04:15;4.82;;;2.50;;
58878;SDS011;44660;42.664;23.266;2022-10-16T10:06:48;4.85;;;3.42;;
58878;SDS011;44660;42.664;23.266;2022-10-16T10:14:45;3.47;;;2.30;;
58878;SDS011;44660;42.664;23.266;2022-10-16T10:17:15;4.28;;;2.63;;
58878;SDS011;44660;42.664;23.266;2022-10-16T10:20:23;5.10;;;2.60;;
58878;SDS011;44660;42.664;23.266;2022-10-16T10:22:54;6.13;;;3.00;;
58878;SDS011;44660;42.664;23.266;2022-10-16T10:31:22;5.45;;;4.10;;
58878;SDS011;44660;42.664;23.266;2022-10-16T10:33:52;7.13;;;3.47;;
58878;SDS011;44660;42.664;23.266;2022-10-16T10:39:08;4.93;;;3.40;;
58878;SDS011;44660;42.664;23.266;2022-10-16T10:55:45;3.83;;;2.90;;
58878;SDS011;44660;42.664;23.266;2022-10-16T11:01:22;4.75;;;2.55;;
58878;SDS011;44660;42.664;23.266;2022-10-16T11:07:16;3.50;;;3.10;;
58878;SDS011;44660;42.664;23.266;2022-10-16T11:09:47;3.38;;;2.60;;
58878;SDS011;44660;42.664;23.266;2022-10-16T11:12:18;4.10;;;2.70;;
58878;SDS011;44660;42.664;23.266;2022-10-16T11:17:36;4.30;;;2.55;;
58878;SDS011;44660;42.664;23.266;2022-10-16T11:20:10;3.45;;;2.45;;
58878;SDS011;44660;42.664;23.266;2022-10-16T11:22:42;4.03;;;2.25;;
58878;SDS011;44660;42.664;23.266;2022-10-16T11:25:23;11.70;;;7.03;;
58878;SDS011;44660;42.664;23.266;2022-10-16T11:30:28;3.78;;;3.17;;
58878;SDS011;44660;42.664;23.266;2022-10-16T11:35:23;3.85;;;2.40;;
58878;SDS011;44660;42.664;23.266;2022-10-16T11:37:56;3.00;;;2.38;;
58878;SDS011;44660;42.664;23.266;2022-10-16T11:40:25;2.53;;;1.70;;
58878;SDS011;44660;42.664;23.266;2022-10-16T11:43:00;3.65;;;1.90;;
58878;SDS011;44660;42.664;23.266;2022-10-16T11:45:34;2.72;;;2.08;;
58878;SDS011;44660;42.664;23.266;2022-10-16T11:48:16;2.83;;;2.15;;
58878;SDS011;44660;42.664;23.266;2022-10-16T11:50:57;6.00;;;2.60;;
58878;SDS011;44660;42.664;23.266;2022-10-16T11:53:39;2.80;;;2.05;;
58878;SDS011;44660;42.664;23.266;2022-10-16T11:56:06;3.10;;;2.00;;
58878;SDS011;44660;42.664;23.266;2022-10-16T12:08:59;8.60;;;4.63;;
58878;SDS011;44660;42.664;23.266;2022-10-16T12:13:51;4.32;;;2.40;;
58878;SDS011;44660;42.664;23.266;2022-10-16T12:16:28;4.05;;;2.33;;
58878;SDS011;44660;42.664;23.266;2022-10-16T12:19:09;2.17;;;1.83;;
58878;SDS011;44660;42.664;23.266;2022-10-16T12:21:41;2.55;;;1.77;;
58878;SDS011;44660;42.664;23.266;2022-10-16T12:24:19;5.43;;;2.40;;
58878;SDS011;44660;42.664;23.266;2022-10-16T12:27:17;1.95;;;1.80;;
58878;SDS011;44660;42.664;23.266;2022-10-16T12:29:49;3.00;;;2.13;;
58878;SDS011;44660;42.664;23.266;2022-10-16T12:32:29;2.53;;;2.20;;
58878;SDS011;44660;42.664;23.266;2022-10-16T12:34:57;2.65;;;2.00;;
58878;SDS011;44660;42.664;23.266;2022-10-16T12:37:25;3.50;;;2.30;;
58878;SDS011;44660;42.664;23.266;2022-10-16T12:39:59;4.47;;;2.58;;
58878;SDS011;44660;42.664;23.266;2022-10-16T12:42:47;3.60;;;2.20;;
58878;SDS011;44660;42.664;23.266;2022-10-16T12:45:32;1.92;;;1.75;;
58878;SDS011;44660;42.664;23.266;2022-10-16T12:48:02;3.67;;;1.80;;
58878;SDS011;44660;42.664;23.266;2022-10-16T12:50:43;4.97;;;2.28;;
58878;SDS011;44660;42.664;23.266;2022-10-16T12:53:19;9.23;;;6.25;;
58878;SDS011;44660;42.664;23.266;2022-10-16T12:55:55;6.88;;;3.15;;
58878;SDS011;44660;42.664;23.266;2022-10-16T13:01:15;5.43;;;2.75;;
58878;SDS011;44660;42.664;23.266;2022-10-16T13:04:33;6.00;;;2.50;;
58878;SDS011;44660;42.664;23.266;2022-10-16T13:06:51;6.50;;;2.42;;
58878;SDS011;44660;42.664;23.266;2022-10-16T13:17:18;4.97;;;3.08;;
58878;SDS011;44660;42.664;23.266;2022-10-16T13:19:58;7.53;;;3.13;;
58878;SDS011;44660;42.664;23.266;2022-10-16T13:22:40;2.28;;;1.92;;
58878;SDS011;44660;42.664;23.266;2022-10-16T13:27:48;2.60;;;1.80;;
58878;SDS011;44660;42.664;23.266;2022-10-16T13:33:02;6.68;;;2.30;;
58878;SDS011;44660;42.664;23.266;2022-10-16T13:35:30;3.47;;;2.30;;
58878;SDS011;44660;42.664;23.266;2022-10-16T13:38:16;5.65;;;3.15;;
58878;SDS011;44660;42.664;23.266;2022-10-16T13:40:51;4.78;;;2.50;;
58878;SDS011;44660;42.664;23.266;2022-10-16T13:43:24;5.55;;;2.40;;
58878;SDS011;44660;42.664;23.266;2022-10-16T13:46:21;4.53;;;2.40;;
58878;SDS011;44660;42.664;23.266;2022-10-16T13:48:58;5.93;;;2.20;;
58878;SDS011;44660;42.664;23.266;2022-10-16T13:51:29;5.45;;;2.30;;
58878;SDS011;44660;42.664;23.266;2022-10-16T13:53:55;2.78;;;2.22;;
58878;SDS011;44660;42.664;23.266;2022-10-16T13:56:22;5.78;;;2.38;;
58878;SDS011;44660;42.664;23.266;2022-10-16T13:59:05;3.20;;;2.05;;
58878;SDS011;44660;42.664;23.266;2022-10-16T14:01:47;8.43;;;2.35;;
58878;SDS011;44660;42.664;23.266;2022-10-16T14:04:13;5.43;;;3.85;;
58878;SDS011;44660;42.664;23.266;2022-10-16T14:06:40;10.20;;;7.05;;
58878;SDS011;44660;42.664;23.266;2022-10-16T14:11:56;5.18;;;3.03;;
58878;SDS011;44660;42.664;23.266;2022-10-16T14:14:26;3.50;;;2.75;;
58878;SDS011;44660;42.664;23.266;2022-10-16T14:16:55;3.10;;;2.50;;
58878;SDS011;44660;42.664;23.266;2022-10-16T14:19:22;5.30;;;2.58;;
58878;SDS011;44660;42.664;23.266;2022-10-16T14:26:50;6.68;;;2.50;;
58878;SDS011;44660;42.664;23.266;2022-10-16T14:29:19;3.92;;;2.40;;
58878;SDS011;44660;42.664;23.266;2022-10-16T14:31:54;6.40;;;2.35;;
58878;SDS011;44660;42.664;23.266;2022-10-16T14:34:32;4.93;;;2.63;;
58878;SDS011;44660;42.664;23.266;2022-10-16T14:37:23;3.95;;;2.20;;
58878;SDS011;44660;42.664;23.266;2022-10-16T14:39:52;5.97;;;2.45;;
58878;SDS011;44660;42.664;23.266;2022-10-16T14:42:20;4.05;;;2.40;;
58878;SDS011;44660;42.664;23.266;2022-10-16T14:44:51;6.13;;;3.42;;
58878;SDS011;44660;42.664;23.266;2022-10-16T14:47:19;6.60;;;2.47;;
58878;SDS011;44660;42.664;23.266;2022-10-16T14:49:49;3.10;;;1.95;;
58878;SDS011;44660;42.664;23.266;2022-10-16T14:52:15;4.03;;;2.20;;
58878;SDS011;44660;42.664;23.266;2022-10-16T14:54:41;3.25;;;2.20;;
58878;SDS011;44660;42.664;23.266;2022-10-16T14:57:15;7.43;;;3.70;;
58878;SDS011;44660;42.664;23.266;2022-10-16T14:59:43;3.65;;;2.28;;
58878;SDS011;44660;42.664;23.266;2022-10-16T15:04:53;4.03;;;2.30;;
58878;SDS011;44660;42.664;23.266;2022-10-16T15:07:18;3.42;;;2.25;;
58878;SDS011;44660;42.664;23.266;2022-10-16T15:09:44;3.53;;;2.50;;
58878;SDS011;44660;42.664;23.266;2022-10-16T15:12:09;5.25;;;2.40;;
58878;SDS011;44660;42.664;23.266;2022-10-16T15:14:35;2.92;;;2.40;;
58878;SDS011;44660;42.664;23.266;2022-10-16T15:17:01;5.38;;;2.28;;
58878;SDS011;44660;42.664;23.266;2022-10-16T15:19:27;7.63;;;2.60;;
58878;SDS011;44660;42.664;23.266;2022-10-16T15:21:52;3.28;;;2.38;;
58878;SDS011;44660;42.664;23.266;2022-10-16T15:24:18;4.38;;;2.63;;
58878;SDS011;44660;42.664;23.266;2022-10-16T15:26:43;6.53;;;3.17;;
58878;SDS011;44660;42.664;23.266;2022-10-16T15:29:10;12.90;;;3.33;;
58878;SDS011;44660;42.664;23.266;2022-10-16T15:31:36;7.53;;;3.50;;
58878;SDS011;44660;42.664;23.266;2022-10-16T15:34:02;10.15;;;3.42;;
58878;SDS011;44660;42.664;23.266;2022-10-16T15:36:35;8.75;;;4.15;;
58878;SDS011;44660;42.664;23.266;2022-10-16T15:39:23;8.27;;;4.53;;
58878;SDS011;44660;42.664;23.266;2022-10-16T15:41:47;9.98;;;5.32;;
58878;SDS011;44660;42.664;23.266;2022-10-16T15:44:17;10.68;;;5.10;;
58878;SDS011;44660;42.664;23.266;2022-10-16T15:46:42;13.50;;;4.07;;
58878;SDS011;44660;42.664;23.266;2022-10-16T15:49:08;41.90;;;26.48;;
58878;SDS011;44660;42.664;23.266;2022-10-16T15:51:38;14.90;;;5.10;;
58878;SDS011;44660;42.664;23.266;2022-10-16T15:54:04;10.70;;;4.68;;
58878;SDS011;44660;42.664;23.266;2022-10-16T15:56:30;9.80;;;5.00;;
58878;SDS011;44660;42.664;23.266;2022-10-16T15:58:58;11.82;;;4.20;;
58878;SDS011;44660;42.664;23.266;2022-10-16T16:01:26;8.95;;;3.78;;
58878;SDS011;44660;42.664;23.266;2022-10-16T16:03:53;12.10;;;4.47;;
58878;SDS011;44660;42.664;23.266;2022-10-16T16:06:19;8.98;;;3.92;;
58878;SDS011;44660;42.664;23.266;2022-10-16T16:08:45;8.98;;;4.20;;
58878;SDS011;44660;42.664;23.266;2022-10-16T16:11:11;12.93;;;4.18;;
58878;SDS011;44660;42.664;23.266;2022-10-16T16:13:38;12.13;;;4.97;;
58878;SDS011;44660;42.664;23.266;2022-10-16T16:16:08;10.45;;;4.45;;
58878;SDS011;44660;42.664;23.266;2022-10-16T16:18:35;14.60;;;5.88;;
58878;SDS011;44660;42.664;23.266;2022-10-16T16:21:01;16.70;;;6.10;;
58878;SDS011;44660;42.664;23.266;2022-10-16T16:23:26;7.28;;;4.28;;
58878;SDS011;44660;42.664;23.266;2022-10-16T16:28:52;9.10;;;4.63;;
58878;SDS011;44660;42.664;23.266;2022-10-16T16:31:19;20.95;;;13.02;;
58878;SDS011;44660;42.664;23.266;2022-10-16T16:33:46;25.05;;;16.55;;
58878;SDS011;44660;42.664;23.266;2022-10-16T16:36:11;10.32;;;4.97;;
58878;SDS011;44660;42.664;23.266;2022-10-16T16:38:37;10.10;;;5.13;;
58878;SDS011;44660;42.664;23.266;2022-10-16T16:43:37;17.70;;;7.90;;
58878;SDS011;44660;42.664;23.266;2022-10-16T16:46:02;15.82;;;8.93;;
58878;SDS011;44660;42.664;23.266;2022-10-16T16:48:28;12.80;;;7.20;;
58878;SDS011;44660;42.664;23.266;2022-10-16T16:50:54;9.93;;;6.05;;
58878;SDS011;44660;42.664;23.266;2022-10-16T16:53:19;10.80;;;6.65;;
58878;SDS011;44660;42.664;23.266;2022-10-16T16:55:44;17.88;;;7.55;;